Main page
METAR-TAF:

METAR-TAF

Airports :

Islamabad, Pakistan

Benazir Bhutto International Airport

latitude: 33-37N, longitude: 073-06E, elevation: 507 m

Current weather observation

The report was made 19 minutes ago, at 08:30 UTC
Wind 6 kt from the Southeast
Temperature 22°C
Humidity 29%
Pressure 1015 hPa
Visibility: 5000 m
haze

METAR: OPRN 210830Z 13006KT 5000 HZ NSC 22/03 Q1015 A29.97 NOSIG

Time: 13:49 (08:49 UTC)

Forecast

The report was made 5 hours and 19 minutes ago, at 03:30 UTC
Forecast valid from 21 at 06 UTC to 22 at 12 UTC
Wind 10 kt from the West
Visibility: 4000 m
haze
Temporary
from 22 at 03 UTC to 22 at 06 UTC
Visibility: 2000 m
mist

TAF: OPRN 210330Z 2106/2212 28010KT 4000 HZ NSC TEMPO 2203/2206 2000 BR

Weather observations and forecasts of more than 4000 airports (METAR and TAF reports).

The available stations are represented by yellow and red dots on the map.

Hover mouse over dot to see the name of the station.

Then click to see weather observations and forecasts.

To change the map : click on the green buttons with a black cross to zoom in, on the green button with a dash to zoom out, or on the green arrows for adjacent maps.


METAR-TAF: